sensor_id;sensor_type;location;lat;lon;timestamp;temperature;humidity
831;DHT22;397;50.564;7.272;2023-03-23T00:01:12;14.00;99.90
831;DHT22;397;50.564;7.272;2023-03-23T00:03:41;13.90;99.90
831;DHT22;397;50.564;7.272;2023-03-23T00:06:09;13.90;99.90
831;DHT22;397;50.564;7.272;2023-03-23T00:08:38;13.90;99.90
831;DHT22;397;50.564;7.272;2023-03-23T00:11:11;13.90;99.90
831;DHT22;397;50.564;7.272;2023-03-23T00:13:42;13.90;99.90
831;DHT22;397;50.564;7.272;2023-03-23T00:16:11;13.90;99.90
831;DHT22;397;50.564;7.272;2023-03-23T00:18:45;13.80;99.90
831;DHT22;397;50.564;7.272;2023-03-23T00:21:13;13.80;99.90
831;DHT22;397;50.564;7.272;2023-03-23T00:23:41;13.80;99.90
831;DHT22;397;50.564;7.272;2023-03-23T00:26:11;13.90;99.90
831;DHT22;397;50.564;7.272;2023-03-23T00:28:40;13.80;99.90
831;DHT22;397;50.564;7.272;2023-03-23T00:31:09;13.70;99.90
831;DHT22;397;50.564;7.272;2023-03-23T00:33:38;13.70;99.90
831;DHT22;397;50.564;7.272;2023-03-23T00:36:08;13.70;99.90
831;DHT22;397;50.564;7.272;2023-03-23T00:38:36;13.70;99.90
831;DHT22;397;50.564;7.272;2023-03-23T00:41:04;13.70;99.90
831;DHT22;397;50.564;7.272;2023-03-23T00:43:33;13.70;99.90
831;DHT22;397;50.564;7.272;2023-03-23T00:46:03;13.70;99.90
831;DHT22;397;50.564;7.272;2023-03-23T00:48:33;13.60;99.90
831;DHT22;397;50.564;7.272;2023-03-23T00:51:02;13.70;99.90
831;DHT22;397;50.564;7.272;2023-03-23T00:53:35;13.70;99.90
831;DHT22;397;50.564;7.272;2023-03-23T00:56:02;13.60;99.90
831;DHT22;397;50.564;7.272;2023-03-23T00:58:30;13.60;99.90
831;DHT22;397;50.564;7.272;2023-03-23T01:00:57;13.50;99.90
831;DHT22;397;50.564;7.272;2023-03-23T01:03:25;13.60;99.90
831;DHT22;397;50.564;7.272;2023-03-23T01:05:55;13.60;99.90
831;DHT22;397;50.564;7.272;2023-03-23T01:08:23;13.60;99.90
831;DHT22;397;50.564;7.272;2023-03-23T01:10:51;13.60;99.90
831;DHT22;397;50.564;7.272;2023-03-23T01:13:20;13.60;99.90
831;DHT22;397;50.564;7.272;2023-03-23T01:15:49;13.60;99.90
831;DHT22;397;50.564;7.272;2023-03-23T01:18:16;13.60;99.90
831;DHT22;397;50.564;7.272;2023-03-23T01:20:44;13.60;99.90
831;DHT22;397;50.564;7.272;2023-03-23T01:23:11;13.60;99.90
831;DHT22;397;50.564;7.272;2023-03-23T01:25:39;13.60;99.90
831;DHT22;397;50.564;7.272;2023-03-23T01:28:06;13.60;99.90
831;DHT22;397;50.564;7.272;2023-03-23T01:30:34;13.60;99.90
831;DHT22;397;50.564;7.272;2023-03-23T01:33:02;13.60;99.90
831;DHT22;397;50.564;7.272;2023-03-23T01:35:29;13.60;99.90
831;DHT22;397;50.564;7.272;2023-03-23T01:37:57;13.50;99.90
831;DHT22;397;50.564;7.272;2023-03-23T01:40:26;13.40;99.90
831;DHT22;397;50.564;7.272;2023-03-23T01:42:54;13.50;99.90
831;DHT22;397;50.564;7.272;2023-03-23T01:45:34;13.50;99.90
831;DHT22;397;50.564;7.272;2023-03-23T01:50:59;13.40;99.90
831;DHT22;397;50.564;7.272;2023-03-23T01:53:30;13.30;99.90
831;DHT22;397;50.564;7.272;2023-03-23T01:55:58;13.40;99.90
831;DHT22;397;50.564;7.272;2023-03-23T01:58:29;13.40;99.90
831;DHT22;397;50.564;7.272;2023-03-23T02:00:58;13.40;99.90
831;DHT22;397;50.564;7.272;2023-03-23T02:03:28;13.30;99.90
831;DHT22;397;50.564;7.272;2023-03-23T02:05:57;13.30;99.90
831;DHT22;397;50.564;7.272;2023-03-23T02:08:27;13.30;99.90
831;DHT22;397;50.564;7.272;2023-03-23T02:10:55;13.20;99.90
831;DHT22;397;50.564;7.272;2023-03-23T02:13:23;13.20;99.90
831;DHT22;397;50.564;7.272;2023-03-23T02:18:53;13.10;99.90
831;DHT22;397;50.564;7.272;2023-03-23T02:27:14;13.00;99.90
831;DHT22;397;50.564;7.272;2023-03-23T02:30:32;13.00;99.90
831;DHT22;397;50.564;7.272;2023-03-23T02:34:56;13.00;99.90
831;DHT22;397;50.564;7.272;2023-03-23T02:37:27;12.90;99.90
831;DHT22;397;50.564;7.272;2023-03-23T02:40:18;13.00;99.90
831;DHT22;397;50.564;7.272;2023-03-23T02:42:26;12.90;99.90
831;DHT22;397;50.564;7.272;2023-03-23T02:44:56;12.90;99.90
831;DHT22;397;50.564;7.272;2023-03-23T02:47:26;13.00;99.90
831;DHT22;397;50.564;7.272;2023-03-23T02:49:56;12.90;99.90
831;DHT22;397;50.564;7.272;2023-03-23T02:52:27;12.90;99.90
831;DHT22;397;50.564;7.272;2023-03-23T02:54:56;12.90;99.90
831;DHT22;397;50.564;7.272;2023-03-23T02:57:27;12.90;99.90
831;DHT22;397;50.564;7.272;2023-03-23T02:59:55;12.80;99.90
831;DHT22;397;50.564;7.272;2023-03-23T03:02:27;12.90;99.90
831;DHT22;397;50.564;7.272;2023-03-23T03:07:51;12.90;99.90
831;DHT22;397;50.564;7.272;2023-03-23T03:10:34;12.80;99.90
831;DHT22;397;50.564;7.272;2023-03-23T03:13:28;12.80;99.90
831;DHT22;397;50.564;7.272;2023-03-23T03:15:59;12.70;99.90
831;DHT22;397;50.564;7.272;2023-03-23T03:18:45;12.80;99.90
831;DHT22;397;50.564;7.272;2023-03-23T03:21:14;12.80;99.90
831;DHT22;397;50.564;7.272;2023-03-23T03:23:43;12.80;99.90
831;DHT22;397;50.564;7.272;2023-03-23T03:26:13;12.80;99.90
831;DHT22;397;50.564;7.272;2023-03-23T03:28:44;12.80;99.90
831;DHT22;397;50.564;7.272;2023-03-23T03:31:17;12.80;99.90
831;DHT22;397;50.564;7.272;2023-03-23T03:33:45;12.70;99.90
831;DHT22;397;50.564;7.272;2023-03-23T03:36:20;12.80;99.90
831;DHT22;397;50.564;7.272;2023-03-23T03:38:45;12.70;99.90
831;DHT22;397;50.564;7.272;2023-03-23T03:41:13;12.60;99.90
831;DHT22;397;50.564;7.272;2023-03-23T03:43:41;12.70;99.90
831;DHT22;397;50.564;7.272;2023-03-23T03:46:08;12.70;99.90
831;DHT22;397;50.564;7.272;2023-03-23T03:48:36;12.70;99.90
831;DHT22;397;50.564;7.272;2023-03-23T03:51:04;12.70;99.90
831;DHT22;397;50.564;7.272;2023-03-23T03:53:31;12.70;99.90
831;DHT22;397;50.564;7.272;2023-03-23T03:55:59;12.70;99.90
831;DHT22;397;50.564;7.272;2023-03-23T03:58:27;12.60;99.90
831;DHT22;397;50.564;7.272;2023-03-23T04:00:59;12.60;99.90
831;DHT22;397;50.564;7.272;2023-03-23T04:03:27;12.60;99.90
831;DHT22;397;50.564;7.272;2023-03-23T04:05:54;12.60;99.90
831;DHT22;397;50.564;7.272;2023-03-23T04:08:23;12.60;99.90
831;DHT22;397;50.564;7.272;2023-03-23T04:10:51;12.60;99.90
831;DHT22;397;50.564;7.272;2023-03-23T04:13:18;12.50;99.90
831;DHT22;397;50.564;7.272;2023-03-23T04:15:47;12.50;99.90
831;DHT22;397;50.564;7.272;2023-03-23T04:18:15;12.50;99.90
831;DHT22;397;50.564;7.272;2023-03-23T04:20:45;12.60;99.90
831;DHT22;397;50.564;7.272;2023-03-23T04:23:16;12.60;99.90
831;DHT22;397;50.564;7.272;2023-03-23T04:25:49;12.60;99.90
831;DHT22;397;50.564;7.272;2023-03-23T04:28:19;12.60;99.90
831;DHT22;397;50.564;7.272;2023-03-23T04:30:49;12.60;99.90
831;DHT22;397;50.564;7.272;2023-03-23T04:33:19;12.60;99.90
831;DHT22;397;50.564;7.272;2023-03-23T04:35:48;12.60;99.90
831;DHT22;397;50.564;7.272;2023-03-23T04:38:16;12.60;99.90
831;DHT22;397;50.564;7.272;2023-03-23T04:40:47;12.60;99.90
831;DHT22;397;50.564;7.272;2023-03-23T04:43:16;12.60;99.90
831;DHT22;397;50.564;7.272;2023-03-23T04:45:45;12.60;99.90
831;DHT22;397;50.564;7.272;2023-03-23T04:48:13;12.60;99.90
831;DHT22;397;50.564;7.272;2023-03-23T04:50:40;12.60;99.90
831;DHT22;397;50.564;7.272;2023-03-23T04:53:08;12.60;99.90
831;DHT22;397;50.564;7.272;2023-03-23T04:55:36;12.50;99.90
831;DHT22;397;50.564;7.272;2023-03-23T04:58:05;12.50;99.90
831;DHT22;397;50.564;7.272;2023-03-23T05:00:34;12.50;99.90
831;DHT22;397;50.564;7.272;2023-03-23T05:03:02;12.40;99.90
831;DHT22;397;50.564;7.272;2023-03-23T05:05:29;12.40;99.90
831;DHT22;397;50.564;7.272;2023-03-23T05:07:58;12.40;99.90
831;DHT22;397;50.564;7.272;2023-03-23T05:10:25;12.40;99.90
831;DHT22;397;50.564;7.272;2023-03-23T05:12:53;12.40;99.90
831;DHT22;397;50.564;7.272;2023-03-23T05:15:21;12.30;99.90
831;DHT22;397;50.564;7.272;2023-03-23T05:17:53;12.30;99.90
831;DHT22;397;50.564;7.272;2023-03-23T05:20:22;12.30;99.90
831;DHT22;397;50.564;7.272;2023-03-23T05:22:51;12.40;99.90
831;DHT22;397;50.564;7.272;2023-03-23T05:25:19;12.30;99.90
831;DHT22;397;50.564;7.272;2023-03-23T05:27:47;12.40;99.90
831;DHT22;397;50.564;7.272;2023-03-23T05:30:20;12.30;99.90
831;DHT22;397;50.564;7.272;2023-03-23T05:32:48;12.30;99.90
831;DHT22;397;50.564;7.272;2023-03-23T05:35:19;12.30;99.90
831;DHT22;397;50.564;7.272;2023-03-23T05:37:47;12.40;99.90
831;DHT22;397;50.564;7.272;2023-03-23T05:40:14;12.50;99.90
831;DHT22;397;50.564;7.272;2023-03-23T05:42:42;12.50;99.90
831;DHT22;397;50.564;7.272;2023-03-23T05:45:11;12.60;99.90
831;DHT22;397;50.564;7.272;2023-03-23T05:47:40;12.60;99.90
831;DHT22;397;50.564;7.272;2023-03-23T05:50:08;12.60;99.90
831;DHT22;397;50.564;7.272;2023-03-23T05:52:37;12.50;99.90
831;DHT22;397;50.564;7.272;2023-03-23T05:55:06;12.50;99.90
831;DHT22;397;50.564;7.272;2023-03-23T05:57:35;12.50;99.90
831;DHT22;397;50.564;7.272;2023-03-23T06:00:02;12.40;99.90
831;DHT22;397;50.564;7.272;2023-03-23T06:02:34;12.50;99.90
831;DHT22;397;50.564;7.272;2023-03-23T06:05:02;12.50;99.90
831;DHT22;397;50.564;7.272;2023-03-23T06:07:29;12.60;99.90
831;DHT22;397;50.564;7.272;2023-03-23T06:09:57;12.70;99.90
831;DHT22;397;50.564;7.272;2023-03-23T06:12:25;12.70;99.90
831;DHT22;397;50.564;7.272;2023-03-23T06:14:52;12.70;99.90
831;DHT22;397;50.564;7.272;2023-03-23T06:17:20;12.80;99.90
831;DHT22;397;50.564;7.272;2023-03-23T06:19:47;12.80;99.90
831;DHT22;397;50.564;7.272;2023-03-23T06:22:17;12.80;99.90
831;DHT22;397;50.564;7.272;2023-03-23T06:24:44;12.90;99.90
831;DHT22;397;50.564;7.272;2023-03-23T06:27:12;12.80;99.90
831;DHT22;397;50.564;7.272;2023-03-23T06:29:40;12.80;99.90
831;DHT22;397;50.564;7.272;2023-03-23T06:32:09;12.80;99.90
831;DHT22;397;50.564;7.272;2023-03-23T06:34:37;12.80;99.90
831;DHT22;397;50.564;7.272;2023-03-23T06:37:04;12.70;99.90
831;DHT22;397;50.564;7.272;2023-03-23T06:39:32;12.70;99.90
831;DHT22;397;50.564;7.272;2023-03-23T06:41:59;12.70;99.90
831;DHT22;397;50.564;7.272;2023-03-23T06:44:27;12.80;99.90
831;DHT22;397;50.564;7.272;2023-03-23T06:46:54;12.70;99.90
831;DHT22;397;50.564;7.272;2023-03-23T06:49:22;12.80;99.90
831;DHT22;397;50.564;7.272;2023-03-23T06:51:49;12.90;99.90
831;DHT22;397;50.564;7.272;2023-03-23T06:54:17;12.90;99.90
831;DHT22;397;50.564;7.272;2023-03-23T06:56:44;13.00;99.90
831;DHT22;397;50.564;7.272;2023-03-23T06:59:12;12.90;99.90
831;DHT22;397;50.564;7.272;2023-03-23T07:01:40;12.90;99.90
831;DHT22;397;50.564;7.272;2023-03-23T07:04:07;13.00;99.90
831;DHT22;397;50.564;7.272;2023-03-23T07:06:35;13.00;99.90
831;DHT22;397;50.564;7.272;2023-03-23T07:09:02;13.10;99.90
831;DHT22;397;50.564;7.272;2023-03-23T07:11:30;13.10;99.90
831;DHT22;397;50.564;7.272;2023-03-23T07:13:58;13.10;99.90
831;DHT22;397;50.564;7.272;2023-03-23T07:16:26;13.10;99.90
831;DHT22;397;50.564;7.272;2023-03-23T07:18:54;13.10;99.90
831;DHT22;397;50.564;7.272;2023-03-23T07:21:21;13.10;99.90
831;DHT22;397;50.564;7.272;2023-03-23T07:23:49;13.00;99.90
831;DHT22;397;50.564;7.272;2023-03-23T07:26:16;13.00;99.90
831;DHT22;397;50.564;7.272;2023-03-23T07:28:44;13.00;99.90
831;DHT22;397;50.564;7.272;2023-03-23T07:31:13;13.10;99.90
831;DHT22;397;50.564;7.272;2023-03-23T07:33:40;13.20;99.90
831;DHT22;397;50.564;7.272;2023-03-23T07:36:08;13.30;99.90
831;DHT22;397;50.564;7.272;2023-03-23T07:38:36;13.20;99.90
831;DHT22;397;50.564;7.272;2023-03-23T07:41:04;13.20;99.90
831;DHT22;397;50.564;7.272;2023-03-23T07:43:32;13.30;99.90
831;DHT22;397;50.564;7.272;2023-03-23T07:45:59;13.20;99.90
831;DHT22;397;50.564;7.272;2023-03-23T07:48:27;13.20;99.90
831;DHT22;397;50.564;7.272;2023-03-23T07:50:54;13.20;99.90
831;DHT22;397;50.564;7.272;2023-03-23T07:53:22;13.30;99.90
831;DHT22;397;50.564;7.272;2023-03-23T07:55:50;13.30;99.90
831;DHT22;397;50.564;7.272;2023-03-23T07:58:18;13.30;99.90
831;DHT22;397;50.564;7.272;2023-03-23T08:00:46;13.40;99.90
831;DHT22;397;50.564;7.272;2023-03-23T08:03:15;13.40;99.90
831;DHT22;397;50.564;7.272;2023-03-23T08:05:43;13.40;99.90
831;DHT22;397;50.564;7.272;2023-03-23T08:08:11;13.40;99.90
831;DHT22;397;50.564;7.272;2023-03-23T08:10:38;13.40;99.90
831;DHT22;397;50.564;7.272;2023-03-23T08:13:06;13.50;99.90
831;DHT22;397;50.564;7.272;2023-03-23T08:15:35;13.60;99.90
831;DHT22;397;50.564;7.272;2023-03-23T08:18:04;13.60;99.90
831;DHT22;397;50.564;7.272;2023-03-23T08:20:32;13.60;99.90
831;DHT22;397;50.564;7.272;2023-03-23T08:23:00;13.60;99.90
831;DHT22;397;50.564;7.272;2023-03-23T08:25:29;13.50;99.90
831;DHT22;397;50.564;7.272;2023-03-23T08:28:01;13.50;99.90
831;DHT22;397;50.564;7.272;2023-03-23T08:30:29;13.50;99.90
831;DHT22;397;50.564;7.272;2023-03-23T08:32:59;13.50;99.90
831;DHT22;397;50.564;7.272;2023-03-23T08:35:27;13.60;99.90
831;DHT22;397;50.564;7.272;2023-03-23T08:37:55;13.50;99.90
831;DHT22;397;50.564;7.272;2023-03-23T08:40:24;13.60;99.90
831;DHT22;397;50.564;7.272;2023-03-23T08:42:52;13.70;99.90
831;DHT22;397;50.564;7.272;2023-03-23T08:45:23;13.70;99.90
831;DHT22;397;50.564;7.272;2023-03-23T08:47:51;13.70;99.90
831;DHT22;397;50.564;7.272;2023-03-23T08:50:27;13.60;99.90
831;DHT22;397;50.564;7.272;2023-03-23T08:52:51;13.60;99.90
831;DHT22;397;50.564;7.272;2023-03-23T08:55:20;13.70;99.90
831;DHT22;397;50.564;7.272;2023-03-23T08:57:48;13.80;99.90
831;DHT22;397;50.564;7.272;2023-03-23T09:00:18;13.80;99.90
831;DHT22;397;50.564;7.272;2023-03-23T09:02:51;13.90;99.90
831;DHT22;397;50.564;7.272;2023-03-23T09:05:21;13.90;99.90
831;DHT22;397;50.564;7.272;2023-03-23T09:07:51;13.90;99.90
831;DHT22;397;50.564;7.272;2023-03-23T09:10:20;13.90;99.90
831;DHT22;397;50.564;7.272;2023-03-23T09:12:48;14.00;99.90
831;DHT22;397;50.564;7.272;2023-03-23T09:15:17;13.90;99.90
831;DHT22;397;50.564;7.272;2023-03-23T09:17:46;14.00;99.90
831;DHT22;397;50.564;7.272;2023-03-23T09:20:17;14.00;99.90
831;DHT22;397;50.564;7.272;2023-03-23T09:22:49;14.00;99.90
831;DHT22;397;50.564;7.272;2023-03-23T09:25:19;14.00;99.90
831;DHT22;397;50.564;7.272;2023-03-23T09:27:52;14.00;99.90
831;DHT22;397;50.564;7.272;2023-03-23T09:30:24;14.10;99.90
831;DHT22;397;50.564;7.272;2023-03-23T09:32:53;14.20;99.90
831;DHT22;397;50.564;7.272;2023-03-23T09:35:22;14.10;99.90
831;DHT22;397;50.564;7.272;2023-03-23T09:37:51;14.20;99.90
831;DHT22;397;50.564;7.272;2023-03-23T09:40:24;14.20;99.90
831;DHT22;397;50.564;7.272;2023-03-23T09:43:12;14.20;99.90
831;DHT22;397;50.564;7.272;2023-03-23T09:45:49;14.20;99.90
831;DHT22;397;50.564;7.272;2023-03-23T09:51:40;14.30;99.90
831;DHT22;397;50.564;7.272;2023-03-23T09:54:19;14.30;99.90
831;DHT22;397;50.564;7.272;2023-03-23T09:56:46;14.30;99.90
831;DHT22;397;50.564;7.272;2023-03-23T10:01:51;14.40;99.90
831;DHT22;397;50.564;7.272;2023-03-23T10:04:34;14.40;99.90
831;DHT22;397;50.564;7.272;2023-03-23T10:07:20;14.50;99.90
831;DHT22;397;50.564;7.272;2023-03-23T10:09:46;14.50;99.90
831;DHT22;397;50.564;7.272;2023-03-23T10:12:21;14.70;99.90
831;DHT22;397;50.564;7.272;2023-03-23T10:14:55;14.90;99.90
831;DHT22;397;50.564;7.272;2023-03-23T10:17:24;14.70;99.90
831;DHT22;397;50.564;7.272;2023-03-23T10:22:52;14.70;99.90
831;DHT22;397;50.564;7.272;2023-03-23T10:25:18;14.70;99.90
831;DHT22;397;50.564;7.272;2023-03-23T10:30:31;14.60;99.90
831;DHT22;397;50.564;7.272;2023-03-23T10:33:04;14.60;99.90
831;DHT22;397;50.564;7.272;2023-03-23T10:35:45;14.60;99.90
831;DHT22;397;50.564;7.272;2023-03-23T10:38:16;14.50;99.90
831;DHT22;397;50.564;7.272;2023-03-23T10:40:48;14.60;99.90
831;DHT22;397;50.564;7.272;2023-03-23T10:43:15;14.50;99.90
831;DHT22;397;50.564;7.272;2023-03-23T10:45:44;14.60;99.90
831;DHT22;397;50.564;7.272;2023-03-23T10:48:23;14.60;99.90
831;DHT22;397;50.564;7.272;2023-03-23T10:50:54;14.70;99.90
831;DHT22;397;50.564;7.272;2023-03-23T10:53:23;14.70;99.90
831;DHT22;397;50.564;7.272;2023-03-23T10:55:51;14.60;99.90
831;DHT22;397;50.564;7.272;2023-03-23T10:58:29;14.60;99.90
831;DHT22;397;50.564;7.272;2023-03-23T11:00:59;14.70;99.90
831;DHT22;397;50.564;7.272;2023-03-23T11:03:48;14.70;99.90
831;DHT22;397;50.564;7.272;2023-03-23T11:06:22;14.70;99.90
831;DHT22;397;50.564;7.272;2023-03-23T11:09:00;14.70;99.90
831;DHT22;397;50.564;7.272;2023-03-23T11:11:29;14.70;99.90
831;DHT22;397;50.564;7.272;2023-03-23T11:14:02;14.70;99.90
831;DHT22;397;50.564;7.272;2023-03-23T11:16:32;14.70;99.90
831;DHT22;397;50.564;7.272;2023-03-23T11:19:11;14.80;99.90
831;DHT22;397;50.564;7.272;2023-03-23T11:21:40;14.80;99.90
831;DHT22;397;50.564;7.272;2023-03-23T11:24:09;14.90;99.90
831;DHT22;397;50.564;7.272;2023-03-23T11:26:37;14.90;99.90
831;DHT22;397;50.564;7.272;2023-03-23T11:29:21;14.90;99.90
831;DHT22;397;50.564;7.272;2023-03-23T11:31:47;15.00;99.90
831;DHT22;397;50.564;7.272;2023-03-23T11:34:25;15.00;99.90
831;DHT22;397;50.564;7.272;2023-03-23T11:39:47;14.90;99.90
831;DHT22;397;50.564;7.272;2023-03-23T11:42:25;15.00;99.90
831;DHT22;397;50.564;7.272;2023-03-23T11:44:49;15.00;99.90
831;DHT22;397;50.564;7.272;2023-03-23T11:57:40;15.20;99.90
831;DHT22;397;50.564;7.272;2023-03-23T12:00:18;15.20;99.90
831;DHT22;397;50.564;7.272;2023-03-23T12:02:52;15.30;99.90
831;DHT22;397;50.564;7.272;2023-03-23T12:05:30;15.30;99.90
831;DHT22;397;50.564;7.272;2023-03-23T12:08:14;15.40;99.90
831;DHT22;397;50.564;7.272;2023-03-23T12:16:23;15.70;99.90
831;DHT22;397;50.564;7.272;2023-03-23T12:21:55;15.70;99.90
831;DHT22;397;50.564;7.272;2023-03-23T12:24:36;16.00;99.90
831;DHT22;397;50.564;7.272;2023-03-23T12:30:04;16.00;99.90
831;DHT22;397;50.564;7.272;2023-03-23T12:35:50;15.80;99.90
831;DHT22;397;50.564;7.272;2023-03-23T12:43:46;15.80;99.90
831;DHT22;397;50.564;7.272;2023-03-23T12:46:01;15.80;99.90
831;DHT22;397;50.564;7.272;2023-03-23T12:48:31;15.80;99.90
831;DHT22;397;50.564;7.272;2023-03-23T12:53:50;15.80;99.90
831;DHT22;397;50.564;7.272;2023-03-23T12:56:33;15.80;99.90
831;DHT22;397;50.564;7.272;2023-03-23T13:01:44;15.60;99.90
831;DHT22;397;50.564;7.272;2023-03-23T13:04:12;15.60;99.90
831;DHT22;397;50.564;7.272;2023-03-23T13:06:42;15.50;99.90
831;DHT22;397;50.564;7.272;2023-03-23T13:09:29;15.50;99.90
831;DHT22;397;50.564;7.272;2023-03-23T13:11:55;15.50;99.90
831;DHT22;397;50.564;7.272;2023-03-23T13:14:41;15.60;99.90
831;DHT22;397;50.564;7.272;2023-03-23T13:20:13;15.50;99.90
831;DHT22;397;50.564;7.272;2023-03-23T13:22:54;15.50;99.90
831;DHT22;397;50.564;7.272;2023-03-23T13:25:30;15.50;99.90
831;DHT22;397;50.564;7.272;2023-03-23T13:27:59;15.60;99.90
831;DHT22;397;50.564;7.272;2023-03-23T13:30:28;15.50;99.90
831;DHT22;397;50.564;7.272;2023-03-23T13:33:04;15.60;99.90
831;DHT22;397;50.564;7.272;2023-03-23T13:35:41;15.70;99.90
831;DHT22;397;50.564;7.272;2023-03-23T13:38:26;15.70;99.90
831;DHT22;397;50.564;7.272;2023-03-23T13:40:49;15.60;99.90
831;DHT22;397;50.564;7.272;2023-03-23T13:43:30;15.50;99.90
831;DHT22;397;50.564;7.272;2023-03-23T13:48:51;15.40;99.90
831;DHT22;397;50.564;7.272;2023-03-23T13:51:33;15.50;99.90
831;DHT22;397;50.564;7.272;2023-03-23T13:54:25;15.50;99.90
831;DHT22;397;50.564;7.272;2023-03-23T13:56:59;15.40;99.90
831;DHT22;397;50.564;7.272;2023-03-23T13:59:35;15.40;99.90
831;DHT22;397;50.564;7.272;2023-03-23T14:02:31;15.40;99.90
831;DHT22;397;50.564;7.272;2023-03-23T14:05:10;15.40;99.90
831;DHT22;397;50.564;7.272;2023-03-23T14:07:59;15.30;99.90
831;DHT22;397;50.564;7.272;2023-03-23T14:10:51;15.30;99.90
831;DHT22;397;50.564;7.272;2023-03-23T14:13:28;15.40;99.90
831;DHT22;397;50.564;7.272;2023-03-23T14:15:57;15.50;99.90
831;DHT22;397;50.564;7.272;2023-03-23T14:18:30;15.60;99.90
831;DHT22;397;50.564;7.272;2023-03-23T14:20:55;15.60;99.90
831;DHT22;397;50.564;7.272;2023-03-23T14:23:24;15.50;99.90
831;DHT22;397;50.564;7.272;2023-03-23T14:25:56;15.60;99.90
831;DHT22;397;50.564;7.272;2023-03-23T14:28:28;15.60;99.90
831;DHT22;397;50.564;7.272;2023-03-23T14:30:56;15.70;99.90
831;DHT22;397;50.564;7.272;2023-03-23T14:33:25;15.70;99.90
831;DHT22;397;50.564;7.272;2023-03-23T14:35:56;15.90;99.90
831;DHT22;397;50.564;7.272;2023-03-23T14:38:25;16.00;99.90
831;DHT22;397;50.564;7.272;2023-03-23T14:40:54;16.10;99.90
831;DHT22;397;50.564;7.272;2023-03-23T14:43:23;16.00;99.90
831;DHT22;397;50.564;7.272;2023-03-23T14:45:55;16.10;99.90
831;DHT22;397;50.564;7.272;2023-03-23T14:48:22;16.20;99.90
831;DHT22;397;50.564;7.272;2023-03-23T14:50:52;16.00;99.90
831;DHT22;397;50.564;7.272;2023-03-23T14:53:25;15.90;99.90
831;DHT22;397;50.564;7.272;2023-03-23T14:55:54;15.80;99.90
831;DHT22;397;50.564;7.272;2023-03-23T14:58:24;15.80;99.90
831;DHT22;397;50.564;7.272;2023-03-23T15:01:06;15.80;99.90
831;DHT22;397;50.564;7.272;2023-03-23T15:03:43;15.80;99.90
831;DHT22;397;50.564;7.272;2023-03-23T15:06:14;15.80;99.90
831;DHT22;397;50.564;7.272;2023-03-23T15:08:42;15.90;99.90
831;DHT22;397;50.564;7.272;2023-03-23T15:13:49;16.10;99.90
831;DHT22;397;50.564;7.272;2023-03-23T15:16:23;16.00;99.90
831;DHT22;397;50.564;7.272;2023-03-23T15:18:56;16.00;99.90
831;DHT22;397;50.564;7.272;2023-03-23T15:21:35;16.00;99.90
831;DHT22;397;50.564;7.272;2023-03-23T15:24:19;16.00;99.90
831;DHT22;397;50.564;7.272;2023-03-23T15:26:41;16.00;99.90
831;DHT22;397;50.564;7.272;2023-03-23T15:31:46;16.00;99.90
831;DHT22;397;50.564;7.272;2023-03-23T15:34:19;16.10;99.90
831;DHT22;397;50.564;7.272;2023-03-23T15:36:40;16.00;99.90
831;DHT22;397;50.564;7.272;2023-03-23T15:39:13;16.00;99.90
831;DHT22;397;50.564;7.272;2023-03-23T15:41:49;16.00;99.90
831;DHT22;397;50.564;7.272;2023-03-23T15:44:29;15.90;99.90
831;DHT22;397;50.564;7.272;2023-03-23T15:47:18;15.80;99.90
831;DHT22;397;50.564;7.272;2023-03-23T15:49:45;15.70;99.90
831;DHT22;397;50.564;7.272;2023-03-23T15:52:13;15.80;99.90
831;DHT22;397;50.564;7.272;2023-03-23T15:54:48;15.70;99.90
831;DHT22;397;50.564;7.272;2023-03-23T15:57:15;15.80;99.90
831;DHT22;397;50.564;7.272;2023-03-23T15:59:43;15.60;99.90
831;DHT22;397;50.564;7.272;2023-03-23T16:02:17;15.60;99.90
831;DHT22;397;50.564;7.272;2023-03-23T16:04:44;15.60;99.90
831;DHT22;397;50.564;7.272;2023-03-23T16:07:11;15.60;99.90
831;DHT22;397;50.564;7.272;2023-03-23T16:09:39;15.60;99.90
831;DHT22;397;50.564;7.272;2023-03-23T16:12:11;15.70;99.90
831;DHT22;397;50.564;7.272;2023-03-23T16:14:39;15.70;99.90
831;DHT22;397;50.564;7.272;2023-03-23T16:17:13;15.60;99.90
831;DHT22;397;50.564;7.272;2023-03-23T16:19:41;15.60;99.90
831;DHT22;397;50.564;7.272;2023-03-23T16:22:09;15.60;99.90
831;DHT22;397;50.564;7.272;2023-03-23T16:24:36;15.70;99.90
831;DHT22;397;50.564;7.272;2023-03-23T16:27:04;15.70;99.90
831;DHT22;397;50.564;7.272;2023-03-23T16:29:32;15.60;99.90
831;DHT22;397;50.564;7.272;2023-03-23T16:31:59;15.60;99.90
831;DHT22;397;50.564;7.272;2023-03-23T16:34:27;15.50;99.90
831;DHT22;397;50.564;7.272;2023-03-23T16:36:56;15.60;99.90
831;DHT22;397;50.564;7.272;2023-03-23T16:39:24;15.50;99.90
831;DHT22;397;50.564;7.272;2023-03-23T16:41:52;15.50;99.90
831;DHT22;397;50.564;7.272;2023-03-23T16:44:19;15.50;99.90
831;DHT22;397;50.564;7.272;2023-03-23T16:46:47;15.50;99.90
831;DHT22;397;50.564;7.272;2023-03-23T16:49:14;15.40;99.90
831;DHT22;397;50.564;7.272;2023-03-23T16:51:42;15.40;99.90
831;DHT22;397;50.564;7.272;2023-03-23T16:54:09;15.30;99.90
831;DHT22;397;50.564;7.272;2023-03-23T17:33:12;14.90;99.90
831;DHT22;397;50.564;7.272;2023-03-23T17:35:41;14.80;99.90
831;DHT22;397;50.564;7.272;2023-03-23T17:38:09;14.80;99.90
831;DHT22;397;50.564;7.272;2023-03-23T17:40:37;14.80;99.90
831;DHT22;397;50.564;7.272;2023-03-23T17:43:05;14.70;99.90
831;DHT22;397;50.564;7.272;2023-03-23T17:45:32;14.60;99.90
831;DHT22;397;50.564;7.272;2023-03-23T17:48:00;14.60;99.90
831;DHT22;397;50.564;7.272;2023-03-23T17:50:27;14.60;99.90
831;DHT22;397;50.564;7.272;2023-03-23T17:52:55;14.60;99.90
831;DHT22;397;50.564;7.272;2023-03-23T17:55:23;14.50;99.90
831;DHT22;397;50.564;7.272;2023-03-23T17:57:50;14.50;99.90
831;DHT22;397;50.564;7.272;2023-03-23T18:00:18;14.50;99.90
831;DHT22;397;50.564;7.272;2023-03-23T18:02:46;14.50;99.90
831;DHT22;397;50.564;7.272;2023-03-23T18:05:14;14.50;99.90
831;DHT22;397;50.564;7.272;2023-03-23T18:07:41;14.40;99.90
831;DHT22;397;50.564;7.272;2023-03-23T18:10:09;14.50;99.90
831;DHT22;397;50.564;7.272;2023-03-23T18:12:39;14.60;99.90
831;DHT22;397;50.564;7.272;2023-03-23T18:15:08;14.60;99.90
831;DHT22;397;50.564;7.272;2023-03-23T18:17:36;14.50;99.90
831;DHT22;397;50.564;7.272;2023-03-23T18:20:06;14.50;99.90
831;DHT22;397;50.564;7.272;2023-03-23T18:22:34;14.50;99.90
831;DHT22;397;50.564;7.272;2023-03-23T18:25:01;14.50;99.90
831;DHT22;397;50.564;7.272;2023-03-23T18:27:31;14.40;99.90
831;DHT22;397;50.564;7.272;2023-03-23T18:29:58;14.40;99.90
831;DHT22;397;50.564;7.272;2023-03-23T18:32:28;14.40;99.90
831;DHT22;397;50.564;7.272;2023-03-23T18:34:55;14.30;99.90
831;DHT22;397;50.564;7.272;2023-03-23T18:37:23;14.30;99.90
831;DHT22;397;50.564;7.272;2023-03-23T18:39:50;14.30;99.90
831;DHT22;397;50.564;7.272;2023-03-23T18:42:19;14.20;99.90
831;DHT22;397;50.564;7.272;2023-03-23T18:44:46;14.20;99.90
831;DHT22;397;50.564;7.272;2023-03-23T18:47:14;14.40;99.90
831;DHT22;397;50.564;7.272;2023-03-23T18:49:41;14.40;99.90